createdAt,value
2022-10-22T00:00:55.263Z,13.62
2022-10-22T00:01:57.020Z,13.62
2022-10-22T00:02:58.900Z,13.61
2022-10-22T00:04:00.464Z,13.62
2022-10-22T00:05:02.207Z,13.62
2022-10-22T00:06:03.932Z,13.61
2022-10-22T00:07:05.666Z,13.62
2022-10-22T00:08:07.401Z,13.62
2022-10-22T00:09:09.276Z,13.61
2022-10-22T00:10:10.871Z,13.61
2022-10-22T00:11:12.595Z,13.6
2022-10-22T00:12:14.343Z,13.6
2022-10-22T00:13:16.068Z,13.6
2022-10-22T00:14:17.810Z,13.59
2022-10-22T00:15:19.538Z,13.58
2022-10-22T00:16:21.277Z,13.58
2022-10-22T00:17:23.011Z,13.57
2022-10-22T00:18:24.746Z,13.56
2022-10-22T00:19:26.482Z,13.55
2022-10-22T00:20:28.218Z,13.54
2022-10-22T00:21:29.967Z,13.54
2022-10-22T00:22:31.687Z,13.53
2022-10-22T00:23:33.415Z,13.52
2022-10-22T00:24:35.162Z,13.52
2022-10-22T00:25:36.916Z,13.52
2022-10-22T00:26:38.631Z,13.51
2022-10-22T00:27:40.602Z,13.52
2022-10-22T00:28:42.107Z,13.52
2022-10-22T00:29:43.832Z,13.51
2022-10-22T00:30:45.578Z,13.51
2022-10-22T00:31:47.327Z,13.51
2022-10-22T00:32:49.042Z,13.5
2022-10-22T00:33:50.775Z,13.51
2022-10-22T00:34:52.519Z,13.51
2022-10-22T00:35:54.237Z,13.51
2022-10-22T00:36:55.984Z,13.51
2022-10-22T00:37:57.704Z,13.51
2022-10-22T00:38:59.450Z,13.51
2022-10-22T00:40:01.190Z,13.51
2022-10-22T00:41:02.921Z,13.5
2022-10-22T00:42:04.655Z,13.5
2022-10-22T00:43:06.398Z,13.5
2022-10-22T00:44:08.132Z,13.5
2022-10-22T00:45:09.860Z,13.5
2022-10-22T00:46:11.600Z,13.5
2022-10-22T00:47:13.328Z,13.5
2022-10-22T00:48:15.069Z,13.49
2022-10-22T00:49:16.794Z,13.49
2022-10-22T00:50:18.543Z,13.49
2022-10-22T00:51:20.272Z,13.48
2022-10-22T00:52:21.994Z,13.48
2022-10-22T00:53:23.730Z,13.47
2022-10-22T00:54:25.466Z,13.47
2022-10-22T00:55:27.214Z,13.47
2022-10-22T00:56:28.964Z,13.46
2022-10-22T00:57:30.667Z,13.46
2022-10-22T00:58:32.413Z,13.45
2022-10-22T00:59:34.150Z,13.45
2022-10-22T01:00:35.928Z,13.44
2022-10-22T01:01:37.612Z,13.43
2022-10-22T01:02:39.695Z,13.42
2022-10-22T01:03:41.087Z,13.41
2022-10-22T01:04:42.824Z,13.39
2022-10-22T01:05:44.561Z,13.37
2022-10-22T01:06:46.292Z,13.36
2022-10-22T01:07:48.034Z,13.35
2022-10-22T01:08:49.844Z,13.33
2022-10-22T01:09:51.499Z,13.31
2022-10-22T01:10:53.230Z,13.3
2022-10-22T01:11:54.984Z,13.29
2022-10-22T01:12:56.700Z,13.27
2022-10-22T01:13:58.453Z,13.24
2022-10-22T01:15:00.171Z,13.24
2022-10-22T01:16:01.897Z,13.21
2022-10-22T01:17:03.638Z,13.2
2022-10-22T01:18:05.370Z,13.19
2022-10-22T01:19:07.110Z,13.17
2022-10-22T01:20:08.914Z,13.15
2022-10-22T01:21:10.575Z,13.15
2022-10-22T01:22:12.313Z,13.14
2022-10-22T01:23:14.046Z,13.13
2022-10-22T01:24:15.779Z,13.13
2022-10-22T01:25:17.511Z,13.12
2022-10-22T01:26:19.276Z,13.13
2022-10-22T01:27:20.976Z,13.14
2022-10-22T01:28:22.717Z,13.14
2022-10-22T01:29:24.451Z,13.14
2022-10-22T01:30:26.197Z,13.14
2022-10-22T01:31:27.919Z,13.15
2022-10-22T01:32:29.647Z,13.16
2022-10-22T01:33:31.385Z,13.16
2022-10-22T01:34:33.129Z,13.18
2022-10-22T01:35:34.860Z,13.18
2022-10-22T01:36:36.604Z,13.19
2022-10-22T01:37:38.615Z,13.2
2022-10-22T01:38:40.068Z,13.22
2022-10-22T01:39:41.797Z,13.23
2022-10-22T01:40:43.531Z,13.24
2022-10-22T01:41:45.282Z,13.25
2022-10-22T01:42:47.016Z,13.26
2022-10-22T01:43:48.743Z,13.28
2022-10-22T01:44:50.482Z,13.29
2022-10-22T01:45:52.228Z,13.29
2022-10-22T01:46:53.963Z,13.3
2022-10-22T01:47:55.688Z,13.31
2022-10-22T01:48:57.418Z,13.31
2022-10-22T01:49:59.154Z,13.32
2022-10-22T01:51:00.888Z,13.33
2022-10-22T01:52:02.621Z,13.34
2022-10-22T01:53:04.358Z,13.34
2022-10-22T01:54:06.092Z,13.34
2022-10-22T01:55:07.879Z,13.35
2022-10-22T01:56:09.565Z,13.35
2022-10-22T01:57:11.298Z,13.35
2022-10-22T01:58:13.033Z,13.35
2022-10-22T01:59:14.759Z,13.36
2022-10-22T02:00:16.495Z,13.36
2022-10-22T02:01:18.231Z,13.35
2022-10-22T02:02:19.977Z,13.35
2022-10-22T02:03:23.765Z,13.35
2022-10-22T02:04:23.443Z,13.35
2022-10-22T02:05:25.177Z,13.35
2022-10-22T02:06:26.900Z,13.34
2022-10-22T02:07:28.648Z,13.34
2022-10-22T02:08:30.375Z,13.33
2022-10-22T02:09:32.118Z,13.33
2022-10-22T02:10:33.845Z,13.31
2022-10-22T02:11:35.595Z,13.31
2022-10-22T02:12:37.505Z,13.31
2022-10-22T02:13:39.058Z,13.3
2022-10-22T02:14:40.793Z,13.31
2022-10-22T02:15:42.519Z,13.3
2022-10-22T02:16:44.251Z,13.29
2022-10-22T02:17:45.989Z,13.29
2022-10-22T02:18:47.729Z,13.29
2022-10-22T02:19:49.460Z,13.3
2022-10-22T02:20:51.199Z,13.3
2022-10-22T02:21:52.941Z,13.29
2022-10-22T02:22:54.663Z,13.29
2022-10-22T02:23:56.397Z,13.29
2022-10-22T02:24:58.135Z,13.29
2022-10-22T02:25:59.863Z,13.29
2022-10-22T02:27:01.603Z,13.28
2022-10-22T02:28:03.331Z,13.29
2022-10-22T02:29:05.063Z,13.28
2022-10-22T02:30:06.899Z,13.28
2022-10-22T02:31:08.541Z,13.27
2022-10-22T02:32:10.274Z,13.27
2022-10-22T02:33:11.999Z,13.27
2022-10-22T02:34:13.756Z,13.27
2022-10-22T02:35:15.478Z,13.26
2022-10-22T02:36:17.227Z,13.26
2022-10-22T02:37:18.948Z,13.26
2022-10-22T02:38:20.691Z,13.26
2022-10-22T02:39:22.409Z,13.26
2022-10-22T02:40:24.156Z,13.25
2022-10-22T02:41:25.887Z,13.25
2022-10-22T02:42:27.618Z,13.25
2022-10-22T02:43:29.351Z,13.25
2022-10-22T02:44:31.095Z,13.23
2022-10-22T02:45:32.841Z,13.23
2022-10-22T02:46:34.558Z,13.22
2022-10-22T02:47:36.295Z,13.22
2022-10-22T02:48:38.037Z,13.22
2022-10-22T02:49:39.759Z,13.21
2022-10-22T02:50:41.497Z,13.21
2022-10-22T02:51:43.238Z,13.21
2022-10-22T02:52:44.969Z,13.2
2022-10-22T02:53:46.699Z,13.19
2022-10-22T02:54:48.429Z,13.19
2022-10-22T02:55:50.172Z,13.19
2022-10-22T02:56:51.915Z,13.19
2022-10-22T02:57:53.630Z,13.18
2022-10-22T02:58:55.365Z,13.17
2022-10-22T02:59:57.106Z,13.17
2022-10-22T03:00:58.889Z,13.17
2022-10-22T03:02:00.580Z,13.15
2022-10-22T03:03:02.303Z,13.15
2022-10-22T03:04:04.030Z,13.14
2022-10-22T03:05:05.767Z,13.14
2022-10-22T03:06:07.512Z,13.13
2022-10-22T03:07:09.243Z,13.13
2022-10-22T03:08:10.978Z,13.13
2022-10-22T03:09:12.765Z,13.12
2022-10-22T03:10:14.449Z,13.13
2022-10-22T03:11:16.174Z,13.13
2022-10-22T03:12:17.907Z,13.12
2022-10-22T03:13:19.647Z,13.12
2022-10-22T03:14:21.391Z,13.12
2022-10-22T03:15:23.177Z,13.12
2022-10-22T03:16:24.881Z,13.14
2022-10-22T03:17:26.593Z,13.13
2022-10-22T03:18:28.325Z,13.14
2022-10-22T03:19:30.070Z,13.14
2022-10-22T03:20:31.799Z,13.13
2022-10-22T03:21:33.537Z,13.14
2022-10-22T03:22:35.314Z,13.14
2022-10-22T03:23:36.996Z,13.14
2022-10-22T03:24:38.738Z,13.15
2022-10-22T03:25:40.468Z,13.15
2022-10-22T03:26:42.214Z,13.15
2022-10-22T03:27:44.062Z,13.16
2022-10-22T03:28:45.682Z,13.16
2022-10-22T03:29:47.407Z,13.17
2022-10-22T03:30:49.144Z,13.17
2022-10-22T03:31:50.889Z,13.17
2022-10-22T03:32:52.612Z,13.18
2022-10-22T03:33:54.346Z,13.18
2022-10-22T03:34:56.224Z,13.19
2022-10-22T03:35:57.809Z,13.19
2022-10-22T03:36:59.566Z,13.19
2022-10-22T03:38:01.278Z,13.19
2022-10-22T03:39:03.029Z,13.2
2022-10-22T03:40:04.766Z,13.19
2022-10-22T03:41:06.487Z,13.19
2022-10-22T03:42:08.241Z,13.18
2022-10-22T03:43:09.955Z,13.18
2022-10-22T03:44:11.694Z,13.17
2022-10-22T03:45:13.428Z,13.18
2022-10-22T03:46:15.158Z,13.18
2022-10-22T03:47:16.904Z,13.18
2022-10-22T03:48:18.627Z,13.18
2022-10-22T03:49:20.363Z,13.18
2022-10-22T03:50:22.104Z,13.18
2022-10-22T03:51:23.843Z,13.17
2022-10-22T03:52:25.563Z,13.18
2022-10-22T03:53:27.303Z,13.18
2022-10-22T03:54:29.107Z,13.18
2022-10-22T03:55:30.765Z,13.17
2022-10-22T03:56:32.503Z,13.18
2022-10-22T03:57:34.246Z,13.19
2022-10-22T03:58:35.971Z,13.19
2022-10-22T03:59:37.805Z,13.19
2022-10-22T04:00:39.446Z,13.19
2022-10-22T04:01:41.181Z,13.19
2022-10-22T04:02:42.914Z,13.18
2022-10-22T04:03:44.654Z,13.19
2022-10-22T04:04:46.383Z,13.18
2022-10-22T04:05:48.125Z,13.18
2022-10-22T04:06:49.868Z,13.16
2022-10-22T04:07:51.593Z,13.15
2022-10-22T04:08:53.381Z,13.14
2022-10-22T04:09:55.070Z,13.13
2022-10-22T04:10:56.800Z,13.13
2022-10-22T04:11:58.551Z,13.13
2022-10-22T04:13:00.273Z,13.11
2022-10-22T04:14:02.005Z,13.11
2022-10-22T04:15:03.736Z,13.09
2022-10-22T04:16:05.470Z,13.09
2022-10-22T04:17:07.213Z,13.08
2022-10-22T04:18:08.939Z,13.06
2022-10-22T04:19:10.675Z,13.05
2022-10-22T04:20:12.405Z,13.05
2022-10-22T04:21:14.147Z,13.04
2022-10-22T04:22:15.884Z,13.03
2022-10-22T04:23:17.615Z,13.02
2022-10-22T04:24:19.345Z,13.01
2022-10-22T04:25:21.081Z,13
2022-10-22T04:26:22.815Z,12.99
2022-10-22T04:27:24.554Z,12.98
2022-10-22T04:28:26.281Z,12.97
2022-10-22T04:29:28.034Z,12.96
2022-10-22T04:30:29.757Z,12.95
2022-10-22T04:31:31.491Z,12.93
2022-10-22T04:32:33.225Z,12.93
2022-10-22T04:33:34.967Z,12.92
2022-10-22T04:34:36.699Z,12.91
2022-10-22T04:35:38.430Z,12.9
2022-10-22T04:36:40.167Z,12.89
2022-10-22T04:37:42.381Z,12.88
2022-10-22T04:38:43.630Z,12.88
2022-10-22T04:39:45.373Z,12.87
2022-10-22T04:40:47.100Z,12.87
2022-10-22T04:41:48.848Z,12.87
2022-10-22T04:42:50.578Z,12.86
2022-10-22T04:43:52.310Z,12.86
2022-10-22T04:44:54.049Z,12.87
2022-10-22T04:46:57.518Z,12.86
2022-10-22T04:47:59.245Z,12.85
2022-10-22T04:49:00.973Z,12.85
2022-10-22T04:50:02.713Z,12.85
2022-10-22T04:51:04.439Z,12.83
2022-10-22T04:52:06.194Z,12.84
2022-10-22T04:53:07.911Z,12.84
2022-10-22T04:54:09.651Z,12.84
2022-10-22T04:55:11.368Z,12.84
2022-10-22T04:56:13.105Z,12.83
2022-10-22T04:57:14.853Z,12.84
2022-10-22T04:58:16.578Z,12.83
2022-10-22T04:59:18.320Z,12.84
2022-10-22T05:00:20.061Z,12.84
2022-10-22T05:01:21.880Z,12.84
2022-10-22T05:02:23.525Z,12.84
2022-10-22T05:03:25.261Z,12.84
2022-10-22T05:04:26.989Z,12.85
2022-10-22T05:05:28.730Z,12.85
2022-10-22T05:06:30.466Z,12.84
2022-10-22T05:07:32.197Z,12.84
2022-10-22T05:08:33.965Z,12.85
2022-10-22T05:09:35.688Z,12.84
2022-10-22T05:10:37.403Z,12.85
2022-10-22T05:11:39.143Z,12.85
2022-10-22T05:12:40.856Z,12.85
2022-10-22T05:13:42.596Z,12.85
2022-10-22T05:14:44.942Z,12.86
2022-10-22T05:15:46.075Z,12.85
2022-10-22T05:16:48.331Z,12.85
2022-10-22T05:17:49.539Z,12.85
2022-10-22T05:18:51.275Z,12.86
2022-10-22T05:19:53.010Z,12.86
2022-10-22T05:20:54.743Z,12.86
2022-10-22T05:21:56.580Z,12.87
2022-10-22T05:22:58.211Z,12.86
2022-10-22T05:24:00.027Z,12.87
2022-10-22T05:25:01.690Z,12.87
2022-10-22T05:26:03.433Z,12.87
2022-10-22T05:27:05.279Z,12.87
2022-10-22T05:28:06.877Z,12.86
2022-10-22T05:29:08.627Z,12.87
2022-10-22T05:30:10.351Z,12.85
2022-10-22T05:31:12.084Z,12.86
2022-10-22T05:32:13.869Z,12.85
2022-10-22T05:33:15.574Z,12.85
2022-10-22T05:34:17.302Z,12.85
2022-10-22T05:35:19.025Z,12.85
2022-10-22T05:36:20.764Z,12.83
2022-10-22T05:37:22.507Z,12.84
2022-10-22T05:38:24.244Z,12.84
2022-10-22T05:39:25.962Z,12.83
2022-10-22T05:40:31.132Z,12.83
2022-10-22T05:41:29.434Z,12.83
2022-10-22T05:42:31.171Z,12.83
2022-10-22T05:43:32.909Z,12.83
2022-10-22T05:44:34.650Z,12.82
2022-10-22T05:45:36.377Z,12.82
2022-10-22T05:46:38.106Z,12.83
2022-10-22T05:47:39.844Z,12.82
2022-10-22T05:48:41.581Z,12.82
2022-10-22T05:49:43.316Z,12.82
2022-10-22T05:50:45.069Z,12.82
2022-10-22T05:51:46.865Z,12.82
2022-10-22T05:52:48.512Z,12.82
2022-10-22T05:53:50.243Z,12.82
2022-10-22T05:54:51.976Z,12.81
2022-10-22T05:55:53.738Z,12.81
2022-10-22T05:56:55.450Z,12.8
2022-10-22T05:57:57.181Z,12.8
2022-10-22T05:58:58.968Z,12.79
2022-10-22T06:00:00.642Z,12.8
2022-10-22T06:01:02.385Z,12.77
2022-10-22T06:02:04.160Z,12.77
2022-10-22T06:03:05.865Z,12.77
2022-10-22T06:04:07.594Z,12.77
2022-10-22T06:05:09.319Z,12.75
2022-10-22T06:06:11.057Z,12.75
2022-10-22T06:07:12.798Z,12.74
2022-10-22T06:08:18.252Z,12.72
2022-10-22T06:09:16.260Z,12.72
2022-10-22T06:10:17.988Z,12.71
2022-10-22T06:11:19.714Z,12.7
2022-10-22T06:12:21.456Z,12.69
2022-10-22T06:13:23.190Z,12.68
2022-10-22T06:14:24.929Z,12.68
2022-10-22T06:15:26.678Z,12.67
2022-10-22T06:16:28.405Z,12.65
2022-10-22T06:17:30.128Z,12.65
2022-10-22T06:18:36.354Z,12.63
2022-10-22T06:19:38.773Z,12.63
2022-10-22T06:20:40.500Z,12.62
2022-10-22T06:21:42.231Z,12.6
2022-10-22T06:22:44.254Z,12.6
2022-10-22T06:23:45.700Z,12.59
2022-10-22T06:24:47.426Z,12.58
2022-10-22T06:25:49.167Z,12.57
2022-10-22T06:26:50.906Z,12.56
2022-10-22T06:27:52.643Z,12.55
2022-10-22T06:28:54.359Z,12.54
2022-10-22T06:29:56.098Z,12.53
2022-10-22T06:30:57.835Z,12.51
2022-10-22T06:31:59.582Z,12.5
2022-10-22T06:33:01.326Z,12.49
2022-10-22T06:34:03.100Z,12.45
2022-10-22T06:35:04.762Z,12.43
2022-10-22T06:36:07.684Z,12.41
2022-10-22T06:37:08.241Z,12.38
2022-10-22T06:38:09.971Z,12.33
2022-10-22T06:39:11.702Z,12.3
2022-10-22T06:40:13.437Z,12.27
2022-10-22T06:41:15.177Z,12.24
2022-10-22T06:42:16.919Z,12.19
2022-10-22T06:43:18.647Z,12.19
2022-10-22T06:44:20.384Z,12.15
2022-10-22T06:45:22.117Z,12.11
2022-10-22T06:46:23.856Z,12.1
2022-10-22T06:47:25.587Z,12.09
2022-10-22T06:48:27.315Z,12.07
2022-10-22T06:49:29.051Z,12.06
2022-10-22T06:50:49.308Z,12.05
2022-10-22T06:51:49.995Z,12.04
2022-10-22T06:52:51.574Z,12.03
2022-10-22T06:53:53.302Z,12.03
2022-10-22T06:54:55.038Z,12.02
2022-10-22T06:55:56.768Z,12.01
2022-10-22T06:56:58.523Z,12.01
2022-10-22T06:58:00.227Z,12
2022-10-22T06:59:01.960Z,11.99
2022-10-22T07:00:03.704Z,11.98
2022-10-22T07:01:05.530Z,11.99
2022-10-22T07:02:07.190Z,11.98
2022-10-22T07:03:08.908Z,11.98
2022-10-22T07:04:10.633Z,11.97
2022-10-22T07:05:12.368Z,11.98
2022-10-22T07:06:14.129Z,11.98
2022-10-22T07:07:15.855Z,11.98
2022-10-22T07:08:17.580Z,11.99
2022-10-22T07:09:19.364Z,11.99
2022-10-22T07:10:21.064Z,12.02
2022-10-22T07:11:22.790Z,12.03
2022-10-22T07:12:24.545Z,12.06
2022-10-22T07:13:26.270Z,12.1
2022-10-22T07:14:27.990Z,12.12
2022-10-22T07:15:29.777Z,12.16
2022-10-22T07:16:32.569Z,12.2
2022-10-22T07:17:33.257Z,12.25
2022-10-22T07:18:34.940Z,12.29
2022-10-22T07:19:36.672Z,12.34
2022-10-22T07:20:38.397Z,12.38
2022-10-22T07:21:40.142Z,12.42
2022-10-22T07:22:42.155Z,12.48
2022-10-22T07:23:43.608Z,12.52
2022-10-22T07:24:45.351Z,12.56
2022-10-22T07:25:47.222Z,12.59
2022-10-22T07:26:48.835Z,12.62
2022-10-22T07:27:50.538Z,12.62
2022-10-22T07:28:52.290Z,12.61
2022-10-22T07:29:54.001Z,12.64
2022-10-22T07:30:55.741Z,12.68
2022-10-22T07:31:57.491Z,12.71
2022-10-22T07:32:59.202Z,12.75
2022-10-22T07:34:00.940Z,12.79
2022-10-22T07:35:02.695Z,12.84
2022-10-22T07:36:04.425Z,12.88
2022-10-22T07:37:06.157Z,12.92
2022-10-22T07:38:07.899Z,12.96
2022-10-22T07:39:09.631Z,12.99
2022-10-22T07:40:11.337Z,13.03
2022-10-22T07:41:13.103Z,13.06
2022-10-22T07:42:14.848Z,13.12
2022-10-22T07:43:16.572Z,13.16
2022-10-22T07:44:18.301Z,13.19
2022-10-22T07:45:20.030Z,13.21
2022-10-22T07:46:21.761Z,13.26
2022-10-22T07:47:23.535Z,13.29
2022-10-22T07:48:25.251Z,13.32
2022-10-22T07:49:26.960Z,13.35
2022-10-22T07:50:28.703Z,13.39
2022-10-22T07:51:30.438Z,13.42
2022-10-22T07:52:32.192Z,13.42
2022-10-22T07:53:33.918Z,13.46
2022-10-22T07:54:35.667Z,13.49
2022-10-22T07:55:37.391Z,13.47
2022-10-22T07:56:39.102Z,13.45
2022-10-22T07:57:40.892Z,13.49
2022-10-22T07:58:42.577Z,13.49
2022-10-22T07:59:44.373Z,13.47
2022-10-22T08:00:46.054Z,13.48
2022-10-22T08:01:47.867Z,13.49
2022-10-22T08:02:49.554Z,13.47
2022-10-22T08:03:51.256Z,13.48
2022-10-22T08:04:52.982Z,13.52
2022-10-22T08:05:54.727Z,13.54
2022-10-22T08:06:56.460Z,13.55
2022-10-22T08:07:58.197Z,13.57
2022-10-22T08:08:59.971Z,13.55
2022-10-22T08:10:01.661Z,13.55
2022-10-22T08:11:03.458Z,13.57
2022-10-22T08:12:05.152Z,13.62
2022-10-22T08:13:06.863Z,13.68
2022-10-22T08:14:08.599Z,13.72
2022-10-22T08:15:10.342Z,13.79
2022-10-22T08:16:12.074Z,13.85
2022-10-22T08:17:13.858Z,13.94
2022-10-22T08:18:15.542Z,14.07
2022-10-22T08:19:17.268Z,14.19
2022-10-22T08:20:19.004Z,14.28
2022-10-22T08:21:20.742Z,14.42
2022-10-22T08:22:22.485Z,14.51
2022-10-22T08:23:26.106Z,14.59
2022-10-22T08:24:25.944Z,14.67
2022-10-22T08:25:27.687Z,14.75
2022-10-22T08:26:29.419Z,14.85
2022-10-22T08:27:31.177Z,14.94
2022-10-22T08:28:32.885Z,15.1
2022-10-22T08:29:34.638Z,15.16
2022-10-22T08:30:36.365Z,15.31
2022-10-22T08:31:38.088Z,15.48
2022-10-22T08:32:39.845Z,15.65
2022-10-22T08:33:41.588Z,15.63
2022-10-22T08:34:43.312Z,15.76
2022-10-22T08:35:45.029Z,15.86
2022-10-22T08:36:46.771Z,15.9
2022-10-22T08:37:48.503Z,16
2022-10-22T08:38:50.230Z,16.11
2022-10-22T08:39:51.961Z,16.25
2022-10-22T08:40:53.699Z,16.31
2022-10-22T08:41:55.457Z,16.37
2022-10-22T08:42:57.196Z,16.44
2022-10-22T08:43:58.905Z,16.53
2022-10-22T08:45:00.641Z,16.68
2022-10-22T08:46:02.373Z,16.77
2022-10-22T08:47:04.106Z,16.84
2022-10-22T08:48:05.875Z,16.92
2022-10-22T08:50:09.317Z,17.06
2022-10-22T08:51:11.045Z,17.17
2022-10-22T08:52:12.780Z,17.25
2022-10-22T08:53:14.520Z,17.1
2022-10-22T08:54:15.372Z,17.1
2022-10-22T08:55:22.369Z,16.98
2022-10-22T08:56:24.850Z,16.84
2022-10-22T08:58:33.463Z,16.52
2022-10-22T08:59:35.198Z,16.39
2022-10-22T09:00:36.929Z,16.25
2022-10-22T09:01:38.684Z,15.98
2022-10-22T09:02:40.686Z,15.9
2022-10-22T09:03:41.470Z,15.78
2022-10-22T09:04:44.913Z,15.56
2022-10-22T09:05:45.656Z,15.46
2022-10-22T09:06:49.600Z,15.4
2022-10-22T09:07:49.075Z,15.31
2022-10-22T09:08:51.989Z,15.23
2022-10-22T09:09:52.542Z,15.19
2022-10-22T09:10:54.278Z,15.15
2022-10-22T09:11:56.016Z,15.12
2022-10-22T09:12:57.745Z,15.15
2022-10-22T09:13:59.478Z,15.18
2022-10-22T09:15:01.210Z,15.24
2022-10-22T09:16:02.947Z,15.33
2022-10-22T09:17:04.660Z,15.38
2022-10-22T09:18:06.393Z,15.48
2022-10-22T09:19:08.127Z,15.55
2022-10-22T09:20:09.850Z,15.57
2022-10-22T09:21:11.595Z,15.6
2022-10-22T09:22:13.339Z,15.65
2022-10-22T09:23:15.055Z,15.72
2022-10-22T09:24:16.797Z,15.71
2022-10-22T09:25:18.531Z,15.74
2022-10-22T09:26:20.268Z,15.75
2022-10-22T09:27:21.997Z,15.74
2022-10-22T09:28:23.739Z,15.74
2022-10-22T09:29:25.475Z,15.73
2022-10-22T09:30:27.207Z,15.68
2022-10-22T09:31:28.941Z,15.64
2022-10-22T09:32:30.681Z,15.6
2022-10-22T09:33:32.408Z,15.58
2022-10-22T09:34:34.154Z,15.58
2022-10-22T09:35:35.871Z,15.57
2022-10-22T09:36:37.453Z,15.58
2022-10-22T09:37:39.202Z,15.6
2022-10-22T09:38:40.936Z,15.66
2022-10-22T09:39:42.660Z,15.69
2022-10-22T09:40:44.397Z,15.74
2022-10-22T09:41:46.130Z,15.75
2022-10-22T09:42:47.872Z,15.76
2022-10-22T09:43:49.592Z,15.8
2022-10-22T09:44:51.336Z,15.85
2022-10-22T09:45:53.072Z,15.87
2022-10-22T09:46:54.792Z,15.91
2022-10-22T09:48:01.777Z,15.98
2022-10-22T09:48:58.256Z,16.04
2022-10-22T09:50:00.004Z,16.1
2022-10-22T09:51:01.725Z,16.15
2022-10-22T09:52:03.484Z,16.22
2022-10-22T09:53:03.498Z,16.28
2022-10-22T09:54:06.938Z,16.37
2022-10-22T09:55:08.683Z,16.44
2022-10-22T09:56:10.402Z,16.45
2022-10-22T09:57:12.132Z,16.45
2022-10-22T09:58:13.857Z,16.45
2022-10-22T09:59:15.611Z,16.45
2022-10-22T10:00:17.336Z,16.4
2022-10-22T10:01:19.074Z,16.34
2022-10-22T10:03:22.574Z,16.28
2022-10-22T10:05:26.003Z,16.22
2022-10-22T10:06:27.746Z,16.19
2022-10-22T10:07:29.509Z,16.17
2022-10-22T10:08:31.242Z,16.13
2022-10-22T10:09:32.943Z,16.11
2022-10-22T10:10:34.675Z,16.1
2022-10-22T10:11:36.415Z,16.09
2022-10-22T10:12:38.236Z,16.12
2022-10-22T10:13:39.873Z,16.19
2022-10-22T10:14:41.617Z,16.25
2022-10-22T10:15:43.346Z,16.29
2022-10-22T10:16:45.084Z,16.32
2022-10-22T10:17:46.828Z,16.36
2022-10-22T10:18:48.547Z,16.34
2022-10-22T10:19:50.279Z,16.38
2022-10-22T10:20:52.015Z,16.38
2022-10-22T10:21:53.759Z,16.41
2022-10-22T10:22:55.494Z,16.41
2022-10-22T10:23:57.228Z,16.46
2022-10-22T10:24:58.967Z,16.47
2022-10-22T10:26:00.712Z,16.48
2022-10-22T10:27:02.427Z,16.57
2022-10-22T10:28:04.169Z,16.64
2022-10-22T10:29:05.914Z,16.66
2022-10-22T10:30:07.636Z,16.63
2022-10-22T10:31:09.359Z,16.67
2022-10-22T10:32:11.106Z,16.7
2022-10-22T10:33:12.849Z,16.7
2022-10-22T10:34:14.573Z,16.7
2022-10-22T10:35:16.300Z,16.69
2022-10-22T10:36:18.036Z,16.67
2022-10-22T10:37:19.771Z,16.68
2022-10-22T10:38:24.623Z,16.64
2022-10-22T10:39:23.310Z,16.63
2022-10-22T10:40:24.994Z,16.66
2022-10-22T10:41:26.714Z,16.68
2022-10-22T10:42:28.448Z,16.76
2022-10-22T10:43:30.183Z,16.77
2022-10-22T10:44:31.917Z,16.78
2022-10-22T10:45:33.650Z,16.82
2022-10-22T10:46:37.101Z,16.82
2022-10-22T10:47:37.117Z,16.87
2022-10-22T10:48:38.862Z,16.92
2022-10-22T10:49:40.594Z,16.91
2022-10-22T10:50:42.331Z,16.94
2022-10-22T10:51:44.052Z,16.95
2022-10-22T10:52:45.814Z,16.97
2022-10-22T10:53:47.533Z,17.07
2022-10-22T10:54:49.263Z,17.06
2022-10-22T10:55:51.002Z,17.07
2022-10-22T10:56:52.732Z,17.07
2022-10-22T10:57:54.467Z,17.06
2022-10-22T10:58:56.201Z,17.05
2022-10-22T10:59:57.923Z,17.04
2022-10-22T11:00:59.791Z,17.01
2022-10-22T11:02:01.393Z,17
2022-10-22T11:03:03.151Z,17
2022-10-22T11:04:04.863Z,16.97
2022-10-22T11:05:06.600Z,16.98
2022-10-22T11:06:08.326Z,16.97
2022-10-22T11:07:11.266Z,16.98
2022-10-22T11:08:11.802Z,17.04
2022-10-22T11:09:13.579Z,17.05
2022-10-22T11:10:15.277Z,17.05
2022-10-22T11:12:18.721Z,17.07
2022-10-22T11:13:20.476Z,17.1
2022-10-22T11:14:24.306Z,17.13
2022-10-22T11:15:23.933Z,17.13
2022-10-22T11:16:25.685Z,17.13
2022-10-22T11:17:27.410Z,17.13
2022-10-22T11:18:29.132Z,17.11
2022-10-22T11:19:49.753Z,17.12
2022-10-22T11:20:32.607Z,17.13
2022-10-22T11:21:34.351Z,17.15
2022-10-22T11:22:36.075Z,17.2
2022-10-22T11:23:37.807Z,17.25
2022-10-22T11:24:39.556Z,17.29
2022-10-22T11:25:41.283Z,17.38
2022-10-22T11:26:43.014Z,17.44
2022-10-22T11:27:44.976Z,17.49
2022-10-22T11:28:46.480Z,17.51
2022-10-22T11:29:48.212Z,17.58
2022-10-22T11:30:49.945Z,17.63
2022-10-22T11:31:51.682Z,17.67
2022-10-22T11:32:53.443Z,17.73
2022-10-22T11:34:04.728Z,17.76
2022-10-22T11:34:56.893Z,17.8
2022-10-22T11:35:58.615Z,17.86
2022-10-22T11:37:00.364Z,17.9
2022-10-22T11:38:02.090Z,17.95
2022-10-22T11:39:03.825Z,18
2022-10-22T11:40:05.566Z,18.04
2022-10-22T11:41:07.288Z,18.1
2022-10-22T11:42:09.019Z,18.15
2022-10-22T11:43:10.770Z,18.19
2022-10-22T11:44:12.503Z,18.24
2022-10-22T11:45:14.247Z,18.3
2022-10-22T11:46:15.968Z,18.35
2022-10-22T11:47:17.701Z,18.4
2022-10-22T11:48:19.453Z,18.45
2022-10-22T11:49:21.182Z,18.49
2022-10-22T11:50:22.918Z,18.54
2022-10-22T11:51:24.644Z,18.57
2022-10-22T11:52:26.377Z,18.63
2022-10-22T11:53:28.130Z,18.66
2022-10-22T11:54:29.852Z,18.71
2022-10-22T11:55:31.579Z,18.75
2022-10-22T11:56:33.312Z,18.78
2022-10-22T11:57:35.046Z,18.83
2022-10-22T11:58:36.832Z,18.88
2022-10-22T11:59:38.527Z,18.93
2022-10-22T12:00:40.245Z,19
2022-10-22T12:01:42.017Z,19.02
2022-10-22T12:02:43.949Z,19.08
2022-10-22T12:03:45.468Z,19.11
2022-10-22T12:04:47.303Z,19.13
2022-10-22T12:05:48.920Z,19.14
2022-10-22T12:06:50.657Z,19.15
2022-10-22T12:07:52.386Z,19.15
2022-10-22T12:08:54.199Z,19.17
2022-10-22T12:09:55.877Z,19.18
2022-10-22T12:10:57.656Z,19.19
2022-10-22T12:11:59.325Z,19.2
2022-10-22T12:13:01.065Z,19.2
2022-10-22T12:14:02.800Z,19.22
2022-10-22T12:15:04.540Z,19.22
2022-10-22T12:16:06.264Z,19.21
2022-10-22T12:17:07.999Z,19.21
2022-10-22T12:18:09.774Z,19.22
2022-10-22T12:19:11.472Z,19.24
2022-10-22T12:20:13.215Z,19.27
2022-10-22T12:21:14.935Z,19.29
2022-10-22T12:22:16.662Z,19.32
2022-10-22T12:23:18.408Z,19.35
2022-10-22T12:24:20.145Z,19.39
2022-10-22T12:25:21.886Z,19.41
2022-10-22T12:26:23.633Z,19.44
2022-10-22T12:27:25.345Z,19.46
2022-10-22T12:28:27.093Z,19.48
2022-10-22T12:29:28.803Z,19.5
2022-10-22T12:30:30.540Z,19.49
2022-10-22T12:31:32.285Z,19.49
2022-10-22T12:32:34.013Z,19.5
2022-10-22T12:33:35.761Z,19.5
2022-10-22T12:34:37.524Z,19.51
2022-10-22T12:35:39.224Z,19.51
2022-10-22T12:36:40.952Z,19.51
2022-10-22T12:37:42.988Z,19.52
2022-10-22T12:38:44.423Z,19.53
2022-10-22T12:39:46.152Z,19.51
2022-10-22T12:40:48.924Z,19.5
2022-10-22T12:41:49.614Z,19.49
2022-10-22T12:42:51.365Z,19.5
2022-10-22T12:43:53.132Z,19.5
2022-10-22T12:44:54.834Z,19.5
2022-10-22T12:45:56.565Z,19.52
2022-10-22T12:46:58.304Z,19.51
2022-10-22T12:48:00.036Z,19.52
2022-10-22T12:49:01.771Z,19.53
2022-10-22T12:50:03.504Z,19.54
2022-10-22T12:51:05.236Z,19.57
2022-10-22T12:52:08.803Z,19.58
2022-10-22T12:53:08.709Z,19.61
2022-10-22T12:54:10.438Z,19.63
2022-10-22T12:55:12.174Z,19.65
2022-10-22T12:56:13.915Z,19.66
2022-10-22T12:57:15.680Z,19.67
2022-10-22T12:58:17.379Z,19.7
2022-10-22T12:59:19.152Z,19.72
2022-10-22T13:00:20.842Z,19.76
2022-10-22T13:01:22.571Z,19.78
2022-10-22T13:02:24.358Z,19.8
2022-10-22T13:03:26.062Z,19.84
2022-10-22T13:04:27.782Z,19.83
2022-10-22T13:05:29.519Z,19.83
2022-10-22T13:06:31.258Z,19.86
2022-10-22T13:07:32.985Z,19.86
2022-10-22T13:08:34.836Z,19.89
2022-10-22T13:09:36.598Z,19.86
2022-10-22T13:10:38.194Z,19.87
2022-10-22T13:11:39.942Z,19.91
2022-10-22T13:12:41.955Z,19.91
2022-10-22T13:13:43.398Z,19.93
2022-10-22T13:14:45.121Z,19.93
2022-10-22T13:15:46.866Z,19.95
2022-10-22T13:16:48.762Z,19.94
2022-10-22T13:17:50.330Z,19.94
2022-10-22T13:18:52.066Z,19.95
2022-10-22T13:19:53.795Z,19.96
2022-10-22T13:20:55.524Z,19.96
2022-10-22T13:21:57.267Z,19.96
2022-10-22T13:22:59.008Z,19.97
2022-10-22T13:24:00.738Z,19.99
2022-10-22T13:25:02.476Z,19.99